createdAt,value
2022-10-29T00:00:40.357Z,44.25
2022-10-29T00:05:34.817Z,44.78
2022-10-29T00:10:28.362Z,40.40
2022-10-29T00:15:22.137Z,45.40
2022-10-29T00:20:16.292Z,44.08
2022-10-29T00:25:10.347Z,39.10
2022-10-29T00:30:03.624Z,44.92
2022-10-29T00:34:58.492Z,43.22
2022-10-29T00:39:52.864Z,37.50
2022-10-29T00:44:46.367Z,40.20
2022-10-29T00:49:41.151Z,40.67
2022-10-29T00:54:37.351Z,41.10
2022-10-29T00:59:31.745Z,42.53
2022-10-29T01:04:25.458Z,40.00
2022-10-29T01:09:18.786Z,38.03
2022-10-29T01:19:15.976Z,36.35
2022-10-29T01:24:27.293Z,37.88
2022-10-29T01:29:36.602Z,35.15
2022-10-29T01:34:32.167Z,34.28
2022-10-29T01:39:41.079Z,38.55
2022-10-29T01:44:46.193Z,34.38
2022-10-29T01:49:41.764Z,36.85
2022-10-29T01:54:35.744Z,35.50
2022-10-29T01:59:36.061Z,33.90
2022-10-29T02:04:38.535Z,32.00
2022-10-29T02:10:06.335Z,35.13
2022-10-29T02:15:19.987Z,29.95
2022-10-29T02:20:14.536Z,29.08
2022-10-29T02:25:10.954Z,27.38
2022-10-29T02:30:06.506Z,29.40
2022-10-29T02:35:01.563Z,26.67
2022-10-29T02:39:55.423Z,26.83
2022-10-29T02:44:49.435Z,28.67
2022-10-29T02:49:43.539Z,32.72
2022-10-29T02:54:36.872Z,25.90
2022-10-29T02:59:29.955Z,27.90
2022-10-29T03:04:23.664Z,22.02
2022-10-29T03:09:17.665Z,25.70
2022-10-29T03:14:10.685Z,21.00
2022-10-29T03:19:05.546Z,26.67
2022-10-29T03:23:59.487Z,22.98
2022-10-29T03:28:53.288Z,25.85
2022-10-29T03:33:47.717Z,28.77
2022-10-29T03:38:41.185Z,24.85
2022-10-29T03:43:34.195Z,29.02
2022-10-29T03:48:28.637Z,25.95
2022-10-29T03:53:22.600Z,22.25
2022-10-29T03:58:16.191Z,24.52
2022-10-29T04:03:10.149Z,22.65
2022-10-29T04:08:04.357Z,23.35
2022-10-29T04:12:58.385Z,21.45
2022-10-29T04:17:53.162Z,23.27
2022-10-29T04:33:18.369Z,23.25
2022-10-29T04:38:12.421Z,23.20
2022-10-29T04:43:06.085Z,21.23
2022-10-29T04:48:03.631Z,21.60
2022-10-29T04:53:01.343Z,24.17
2022-10-29T04:57:55.120Z,25.70
2022-10-29T05:02:51.149Z,24.38
2022-10-29T05:07:44.634Z,24.08
2022-10-29T05:12:38.472Z,23.67
2022-10-29T05:17:32.190Z,19.50
2022-10-29T05:27:24.139Z,20.92
2022-10-29T05:32:17.175Z,22.35
2022-10-29T05:37:10.314Z,23.73
2022-10-29T05:46:57.355Z,24.60
2022-10-29T05:51:51.262Z,21.13
2022-10-29T05:56:44.901Z,22.08
2022-10-29T06:01:39.355Z,20.60
2022-10-29T06:06:32.755Z,22.45
2022-10-29T06:11:26.595Z,18.58
2022-10-29T06:16:20.386Z,17.23
2022-10-29T06:21:14.526Z,27.15
2022-10-29T06:26:08.094Z,20.20
2022-10-29T06:31:02.313Z,20.13
2022-10-29T06:36:00.525Z,18.63
2022-10-29T06:40:54.846Z,24.70
2022-10-29T06:45:50.786Z,18.15
2022-10-29T06:50:44.512Z,19.10
2022-10-29T07:00:32.858Z,16.23
2022-10-29T07:05:27.485Z,15.45
2022-10-29T07:10:20.945Z,23.45
2022-10-29T07:15:14.059Z,19.05
2022-10-29T07:20:10.187Z,18.17
2022-10-29T07:25:03.916Z,21.38
2022-10-29T07:29:56.889Z,15.85
2022-10-29T07:34:51.045Z,13.43
2022-10-29T07:39:45.000Z,27.50
2022-10-29T07:44:39.714Z,19.52
2022-10-29T07:49:33.663Z,20.30
2022-10-29T07:54:27.691Z,15.45
2022-10-29T07:59:21.861Z,16.98
2022-10-29T08:04:15.936Z,16.30
2022-10-29T08:09:08.756Z,18.58
2022-10-29T08:14:02.824Z,19.10
2022-10-29T08:18:56.835Z,15.82
2022-10-29T08:23:50.424Z,21.40
2022-10-29T08:28:44.326Z,27.98
2022-10-29T08:33:37.370Z,26.48
2022-10-29T08:38:30.593Z,27.55
2022-10-29T08:43:42.045Z,28.80
2022-10-29T08:49:02.655Z,34.85
2022-10-29T08:59:24.071Z,37.65
2022-10-29T09:04:36.835Z,41.30
2022-10-29T09:09:44.797Z,46.45
2022-10-29T09:14:51.107Z,45.67
2022-10-29T09:19:49.720Z,42.00
2022-10-29T09:25:14.907Z,41.55
2022-10-29T09:30:19.960Z,39.90
2022-10-29T09:35:19.496Z,38.05
2022-10-29T09:40:35.583Z,41.75
2022-10-29T09:45:57.130Z,42.13
2022-10-29T09:50:58.600Z,35.42
2022-10-29T09:55:55.394Z,48.30
2022-10-29T10:00:48.850Z,39.75
2022-10-29T10:06:07.238Z,38.10
2022-10-29T10:11:05.467Z,35.78
2022-10-29T10:16:03.652Z,40.80
2022-10-29T10:21:18.222Z,30.15
2022-10-29T10:26:34.409Z,38.92
2022-10-29T10:31:29.498Z,37.35
2022-10-29T10:36:26.466Z,34.00
2022-10-29T10:41:26.512Z,37.83
2022-10-29T10:46:25.757Z,36.10
2022-10-29T10:51:31.966Z,29.48
2022-10-29T10:56:26.013Z,28.90
2022-10-29T11:01:47.554Z,29.00
2022-10-29T11:06:42.591Z,29.63
2022-10-29T11:11:40.380Z,35.97
2022-10-29T11:16:52.811Z,32.03
2022-10-29T11:22:07.514Z,31.35
2022-10-29T11:27:20.063Z,24.65
2022-10-29T11:32:24.191Z,23.27
2022-10-29T11:37:32.321Z,25.25
2022-10-29T11:42:26.411Z,28.35
2022-10-29T11:47:40.811Z,20.23
2022-10-29T11:52:59.213Z,22.10
2022-10-29T11:58:13.328Z,24.38
2022-10-29T12:03:20.819Z,23.98
2022-10-29T12:08:22.372Z,28.73
2022-10-29T12:13:45.376Z,24.80
2022-10-29T12:18:44.528Z,23.58
2022-10-29T12:24:09.345Z,30.17
2022-10-29T12:29:29.928Z,21.58
2022-10-29T12:34:33.152Z,26.63
2022-10-29T12:39:32.912Z,21.13
2022-10-29T12:44:35.324Z,25.38
2022-10-29T12:49:51.649Z,29.70
2022-10-29T12:54:47.399Z,26.20
2022-10-29T12:59:42.408Z,21.60
2022-10-29T13:04:35.394Z,22.85
2022-10-29T13:09:36.807Z,22.67
2022-10-29T13:14:53.928Z,22.58
2022-10-29T13:20:03.298Z,20.10
2022-10-29T13:25:28.810Z,20.45
2022-10-29T13:30:28.503Z,18.83
2022-10-29T13:35:22.174Z,19.60
2022-10-29T13:40:24.618Z,22.15
2022-10-29T13:45:19.297Z,26.85
2022-10-29T13:50:17.650Z,21.40
2022-10-29T13:55:15.805Z,19.30
2022-10-29T14:00:12.754Z,19.77
2022-10-29T14:05:24.769Z,17.80
2022-10-29T14:10:49.332Z,19.70
2022-10-29T14:16:07.179Z,21.85
2022-10-29T14:21:07.177Z,18.42
2022-10-29T14:26:04.255Z,17.45
2022-10-29T14:31:20.359Z,18.23
2022-10-29T14:36:32.282Z,19.55
2022-10-29T14:41:27.080Z,16.10
2022-10-29T14:46:24.846Z,20.17
2022-10-29T14:51:22.776Z,20.10
2022-10-29T14:56:20.098Z,19.25
2022-10-29T15:01:21.188Z,17.27
2022-10-29T15:06:29.440Z,20.30
2022-10-29T15:12:08.729Z,20.75
2022-10-29T15:17:02.604Z,20.60
2022-10-29T15:21:56.133Z,24.35
2022-10-29T15:26:51.975Z,21.30
2022-10-29T15:31:47.077Z,24.98
2022-10-29T15:36:48.338Z,20.15
2022-10-29T15:41:50.749Z,24.15
2022-10-29T15:46:53.881Z,28.23
2022-10-29T15:51:48.614Z,26.08
2022-10-29T15:56:42.450Z,27.23
2022-10-29T16:01:36.043Z,23.50
2022-10-29T16:06:29.009Z,26.55
2022-10-29T16:11:23.193Z,29.23
2022-10-29T16:16:18.560Z,25.33
2022-10-29T16:21:18.079Z,32.17
2022-10-29T16:26:17.040Z,66.05
2022-10-29T16:31:21.133Z,71.65
2022-10-29T16:36:14.080Z,80.97
2022-10-29T16:41:08.180Z,91.57
2022-10-29T16:46:05.312Z,101.25
2022-10-29T16:51:00.222Z,92.47
2022-10-29T16:55:54.082Z,68.40
2022-10-29T17:00:48.348Z,86.88
2022-10-29T17:05:44.018Z,112.93
2022-10-29T17:10:38.276Z,125.47
2022-10-29T17:15:32.482Z,126.07
2022-10-29T17:20:26.127Z,77.03
2022-10-29T17:25:19.654Z,70.75
2022-10-29T17:30:14.148Z,42.33
2022-10-29T17:35:07.900Z,34.92
2022-10-29T17:40:04.841Z,37.38
2022-10-29T17:45:01.929Z,29.95
2022-10-29T17:49:56.193Z,28.95
2022-10-29T17:54:50.718Z,21.80
2022-10-29T17:59:44.391Z,28.88
2022-10-29T18:04:37.552Z,29.05
2022-10-29T18:09:31.939Z,23.27
2022-10-29T18:14:26.256Z,25.02
2022-10-29T18:19:19.880Z,27.27
2022-10-29T18:24:12.966Z,25.60
2022-10-29T18:29:09.026Z,28.55
2022-10-29T18:34:06.797Z,33.25
2022-10-29T18:38:59.988Z,27.48
2022-10-29T18:48:47.430Z,28.58
2022-10-29T18:53:41.662Z,33.10
2022-10-29T18:58:34.527Z,32.08
2022-10-29T19:08:22.335Z,33.03
2022-10-29T19:13:15.831Z,26.42
2022-10-29T19:23:03.326Z,24.73
2022-10-29T19:27:57.477Z,27.23
2022-10-29T19:32:51.840Z,23.88
2022-10-29T19:37:45.571Z,27.88
2022-10-29T19:42:39.696Z,24.45
2022-10-29T19:47:33.282Z,26.38
2022-10-29T19:57:20.393Z,22.75
2022-10-29T20:02:13.259Z,23.38
2022-10-29T20:07:07.297Z,25.23
2022-10-29T20:12:01.343Z,27.52
2022-10-29T20:16:55.035Z,26.30
2022-10-29T20:21:48.479Z,29.90
2022-10-29T20:26:42.851Z,23.70
2022-10-29T20:31:41.098Z,18.10
2022-10-29T20:36:35.277Z,25.35
2022-10-29T20:41:30.306Z,29.58
2022-10-29T20:46:25.871Z,23.58
2022-10-29T20:51:19.540Z,30.17
2022-10-29T20:56:16.105Z,33.25
2022-10-29T21:01:12.317Z,26.23
2022-10-29T21:06:13.901Z,26.60
2022-10-29T21:11:11.925Z,31.00
2022-10-29T21:16:29.036Z,27.35
2022-10-29T21:21:21.692Z,29.55
2022-10-29T21:26:17.567Z,31.90
2022-10-29T21:31:11.289Z,34.00
2022-10-29T21:36:05.040Z,28.75
2022-10-29T21:40:58.820Z,31.15
2022-10-29T21:45:53.161Z,28.30
2022-10-29T21:50:48.163Z,23.52
2022-10-29T21:55:42.857Z,26.90
2022-10-29T22:00:36.512Z,30.73
2022-10-29T22:05:30.406Z,23.60
2022-10-29T22:10:23.653Z,23.13
2022-10-29T22:15:17.184Z,24.27
2022-10-29T22:20:13.616Z,18.35
2022-10-29T22:25:08.366Z,23.73
2022-10-29T22:30:02.234Z,19.30
2022-10-29T22:34:55.504Z,20.08
2022-10-29T22:39:48.486Z,19.23
2022-10-29T22:44:42.720Z,17.98
2022-10-29T22:49:36.930Z,21.70
2022-10-29T22:54:30.835Z,18.50
2022-10-29T22:59:25.187Z,19.02
2022-10-29T23:04:19.285Z,18.65
2022-10-29T23:09:13.240Z,21.27
2022-10-29T23:14:07.028Z,14.75
2022-10-29T23:19:03.489Z,20.55
2022-10-29T23:23:56.839Z,15.77
2022-10-29T23:28:50.480Z,18.95
2022-10-29T23:33:46.177Z,14.45
2022-10-29T23:38:39.488Z,16.80
2022-10-29T23:43:32.898Z,17.88
2022-10-29T23:53:19.773Z,15.52
2022-10-29T23:58:13.936Z,17.25
